Time;durP1;ratioP1;P1;durP2;ratioP2;P2;SDS_P1;SDS_P2;PMS_P1;PMS_P2;Temp;Humidity;BMP_temperature;BMP_pressure;BME280_temperature;BME280_humidity;BME280_pressure;Samples;Min_cycle;Max_cycle;Signal;HPM_P1;HPM_P2
2023/06/12 00:00:52;;;;;;;9.05;2.60;;;;;;;;;;4918944;29;20051;-83
2023/06/12 00:03:26;;;;;;;4.18;2.30;;;;;;;;;;4920580;29;20071;-84
2023/06/12 00:05:58;;;;;;;5.47;2.20;;;;;;;;;;4921451;29;20055;-83
2023/06/12 00:08:27;;;;;;;7.32;2.58;;;;;;;;;;4927913;29;20052;-84
2023/06/12 00:10:56;;;;;;;7.03;2.65;;;;;;;;;;4913625;29;20113;-83
2023/06/12 00:13:23;;;;;;;8.35;3.08;;;;;;;;;;4920270;29;20048;-83
2023/06/12 00:15:52;;;;;;;6.43;2.47;;;;;;;;;;4924877;29;20060;-83
2023/06/12 00:18:23;;;;;;;5.57;2.20;;;;;;;;;;4921730;29;20451;-83
2023/06/12 00:20:51;;;;;;;5.40;2.42;;;;;;;;;;4919465;29;20040;-83
2023/06/12 00:26:17;;;;;;;4.85;2.40;;;;;;;;;;4919632;29;20051;-83
2023/06/12 00:28:46;;;;;;;4.40;2.15;;;;;;;;;;4920687;29;20114;-83
2023/06/12 00:31:14;;;;;;;6.13;2.35;;;;;;;;;;4919394;29;20048;-83
2023/06/12 00:33:41;;;;;;;4.18;2.25;;;;;;;;;;4921251;29;20044;-83
2023/06/12 00:36:15;;;;;;;5.47;2.60;;;;;;;;;;4917544;29;20047;-83
2023/06/12 00:38:43;;;;;;;6.85;2.40;;;;;;;;;;4921385;29;20458;-84
2023/06/12 00:41:15;;;;;;;6.38;2.45;;;;;;;;;;4935098;29;20040;-84
2023/06/12 00:43:43;;;;;;;6.88;2.47;;;;;;;;;;4918707;29;20103;-83
2023/06/12 00:46:12;;;;;;;6.22;2.35;;;;;;;;;;4918368;29;20565;-83
2023/06/12 00:48:47;;;;;;;6.22;2.50;;;;;;;;;;4920165;29;20051;-84
2023/06/12 00:51:17;;;;;;;7.78;2.60;;;;;;;;;;4933106;29;20127;-83
2023/06/12 00:53:43;;;;;;;5.03;2.30;;;;;;;;;;4918048;29;20558;-83
2023/06/12 00:56:13;;;;;;;5.03;2.53;;;;;;;;;;4917495;29;20103;-84
2023/06/12 00:58:42;;;;;;;6.00;2.42;;;;;;;;;;4917464;29;20044;-83
2023/06/12 01:01:10;;;;;;;7.18;2.58;;;;;;;;;;4935005;29;20111;-83
2023/06/12 01:03:38;;;;;;;4.50;2.17;;;;;;;;;;4934368;29;20079;-83
2023/06/12 01:06:10;;;;;;;5.07;2.38;;;;;;;;;;4919523;29;20526;-83
2023/06/12 01:09:17;;;;;;;3.90;2.20;;;;;;;;;;4933875;29;20043;-83
2023/06/12 01:11:48;;;;;;;6.90;2.90;;;;;;;;;;4932578;29;20151;-83
2023/06/12 01:14:17;;;;;;;4.40;2.33;;;;;;;;;;4919832;29;20078;-83
2023/06/12 01:16:45;;;;;;;5.28;2.42;;;;;;;;;;4917641;29;20593;-83
2023/06/12 01:19:19;;;;;;;4.90;2.60;;;;;;;;;;4931297;29;20059;-84
2023/06/12 01:21:52;;;;;;;10.80;2.50;;;;;;;;;;4931683;29;20107;-84
2023/06/12 01:24:38;;;;;;;5.30;3.15;;;;;;;;;;4917989;29;20040;-84
2023/06/12 01:27:33;;;;;;;5.88;2.30;;;;;;;;;;4901583;29;20071;-83
2023/06/12 01:30:15;;;;;;;6.55;3.00;;;;;;;;;;4922504;29;20107;-84
2023/06/12 01:32:47;;;;;;;6.32;2.75;;;;;;;;;;4917102;29;20048;-84
2023/06/12 01:35:23;;;;;;;6.00;2.65;;;;;;;;;;4925179;29;20052;-83
2023/06/12 01:38:21;;;;;;;7.32;2.72;;;;;;;;;;4891906;29;20058;-83
2023/06/12 01:40:53;;;;;;;8.35;2.67;;;;;;;;;;4901447;29;20533;-83
2023/06/12 01:43:23;;;;;;;4.88;2.35;;;;;;;;;;4897281;29;20048;-83
2023/06/12 01:45:50;;;;;;;11.25;2.92;;;;;;;;;;4915321;29;20035;-83
2023/06/12 01:48:17;;;;;;;6.50;2.72;;;;;;;;;;4917291;29;20054;-83
2023/06/12 01:50:45;;;;;;;10.23;2.58;;;;;;;;;;4916763;29;20052;-83
2023/06/12 01:53:15;;;;;;;8.18;2.80;;;;;;;;;;4883724;29;20419;-83
2023/06/12 01:55:44;;;;;;;6.05;2.60;;;;;;;;;;4909746;29;20593;-84
2023/06/12 01:58:16;;;;;;;6.95;2.90;;;;;;;;;;4917731;29;20140;-84
2023/06/12 02:01:03;;;;;;;5.25;2.63;;;;;;;;;;4916936;29;20530;-84
2023/06/12 02:03:37;;;;;;;6.47;2.60;;;;;;;;;;4916371;29;20135;-83
2023/06/12 02:06:35;;;;;;;5.72;2.92;;;;;;;;;;4916952;29;20225;-83
2023/06/12 02:09:01;;;;;;;4.78;2.47;;;;;;;;;;4930082;28;20055;-83
2023/06/12 02:11:29;;;;;;;9.43;2.60;;;;;;;;;;4918700;29;20163;-83
2023/06/12 02:14:23;;;;;;;6.72;3.00;;;;;;;;;;4916991;29;20121;-83
2023/06/12 02:17:18;;;;;;;5.55;2.80;;;;;;;;;;4929966;29;20182;-84
2023/06/12 02:19:48;;;;;;;5.03;2.60;;;;;;;;;;4917186;29;20716;-84
2023/06/12 02:22:21;;;;;;;7.68;2.75;;;;;;;;;;4930593;29;20147;-83
2023/06/12 02:24:50;;;;;;;6.90;3.25;;;;;;;;;;4901112;29;20137;-84
2023/06/12 02:27:43;;;;;;;8.60;2.88;;;;;;;;;;4916306;29;20589;-83
2023/06/12 02:30:12;;;;;;;7.47;2.80;;;;;;;;;;4917823;29;20044;-83
2023/06/12 02:32:39;;;;;;;7.45;3.08;;;;;;;;;;4918200;29;20055;-83
2023/06/12 02:35:08;;;;;;;6.50;2.97;;;;;;;;;;4924625;29;20044;-83
2023/06/12 02:37:38;;;;;;;5.30;2.63;;;;;;;;;;4919998;29;20048;-83
2023/06/12 02:40:10;;;;;;;8.82;3.20;;;;;;;;;;4902521;29;20490;-83
2023/06/12 02:42:38;;;;;;;5.97;2.97;;;;;;;;;;4932445;29;20051;-83
2023/06/12 02:45:06;;;;;;;10.73;2.97;;;;;;;;;;4913575;29;20154;-83
2023/06/12 02:47:33;;;;;;;9.57;3.53;;;;;;;;;;4934353;29;20863;-84
2023/06/12 02:50:08;;;;;;;5.70;2.80;;;;;;;;;;4932635;29;20080;-83
2023/06/12 02:52:45;;;;;;;7.03;3.08;;;;;;;;;;4933248;29;20036;-83
2023/06/12 02:55:14;;;;;;;9.98;2.85;;;;;;;;;;4931968;29;20060;-83
2023/06/12 02:57:43;;;;;;;9.02;3.00;;;;;;;;;;4930005;29;20811;-83
2023/06/12 03:00:14;;;;;;;5.80;3.13;;;;;;;;;;4932001;29;20050;-83
2023/06/12 03:02:47;;;;;;;5.25;2.72;;;;;;;;;;4931338;28;20039;-83
2023/06/12 03:05:43;;;;;;;6.25;3.22;;;;;;;;;;4916455;29;20959;-83
2023/06/12 03:08:13;;;;;;;8.60;3.17;;;;;;;;;;4907703;29;20047;-83
2023/06/12 03:10:47;;;;;;;6.25;3.13;;;;;;;;;;4918995;29;20048;-83
2023/06/12 03:13:15;;;;;;;8.27;3.17;;;;;;;;;;4930431;29;20136;-83
2023/06/12 03:16:09;;;;;;;7.90;3.58;;;;;;;;;;4917093;29;20051;-83
2023/06/12 03:18:37;;;;;;;9.70;2.92;;;;;;;;;;4902997;29;20072;-84
2023/06/12 03:21:05;;;;;;;5.43;2.83;;;;;;;;;;4921856;29;20048;-83
2023/06/12 03:23:33;;;;;;;6.82;3.38;;;;;;;;;;4924384;29;20051;-84
2023/06/12 03:26:27;;;;;;;8.77;2.90;;;;;;;;;;4918436;29;20155;-83
2023/06/12 03:29:00;;;;;;;9.80;2.63;;;;;;;;;;4918193;29;20040;-84
2023/06/12 03:31:29;;;;;;;6.82;2.90;;;;;;;;;;4917092;29;20036;-83
2023/06/12 03:34:00;;;;;;;5.45;3.03;;;;;;;;;;4919999;29;20044;-83
2023/06/12 03:36:33;;;;;;;5.28;2.90;;;;;;;;;;4919781;29;20055;-83
2023/06/12 03:39:09;;;;;;;7.50;2.95;;;;;;;;;;4920262;29;20076;-83
2023/06/12 03:41:53;;;;;;;6.15;3.15;;;;;;;;;;4918948;29;20047;-83
2023/06/12 03:44:39;;;;;;;8.85;3.83;;;;;;;;;;4918997;29;20680;-83
2023/06/12 03:47:14;;;;;;;6.47;2.88;;;;;;;;;;4935544;29;20550;-83
2023/06/12 03:49:45;;;;;;;5.80;3.05;;;;;;;;;;4934813;29;20052;-84
2023/06/12 03:52:18;;;;;;;6.03;2.97;;;;;;;;;;4936395;29;20131;-84
2023/06/12 03:54:49;;;;;;;8.85;3.47;;;;;;;;;;4919610;29;20130;-84
2023/06/12 03:57:18;;;;;;;6.35;3.20;;;;;;;;;;4917750;29;20048;-84
2023/06/12 03:59:46;;;;;;;7.80;3.03;;;;;;;;;;4920296;29;20050;-84
2023/06/12 04:02:13;;;;;;;7.38;3.28;;;;;;;;;;4920512;29;20467;-84
2023/06/12 04:04:41;;;;;;;9.10;3.50;;;;;;;;;;4934724;29;20048;-84
2023/06/12 04:07:14;;;;;;;6.50;3.05;;;;;;;;;;4933753;29;20048;-83
2023/06/12 04:09:43;;;;;;;8.82;3.17;;;;;;;;;;4919438;29;20038;-84
2023/06/12 04:12:12;;;;;;;7.60;3.00;;;;;;;;;;4935728;29;20067;-84
2023/06/12 04:14:45;;;;;;;6.78;2.90;;;;;;;;;;4933779;29;20039;-83
2023/06/12 04:17:13;;;;;;;7.45;3.15;;;;;;;;;;4934029;28;20565;-83
2023/06/12 04:19:41;;;;;;;6.05;3.42;;;;;;;;;;4920031;29;20054;-83
2023/06/12 04:22:15;;;;;;;6.80;3.15;;;;;;;;;;4920322;29;20044;-83
2023/06/12 04:24:45;;;;;;;8.95;3.50;;;;;;;;;;4932629;29;20505;-83
2023/06/12 04:27:16;;;;;;;6.40;3.22;;;;;;;;;;4919702;29;20046;-83
2023/06/12 04:29:43;;;;;;;6.30;3.17;;;;;;;;;;4919788;29;20067;-83
2023/06/12 04:32:36;;;;;;;12.65;3.40;;;;;;;;;;4933372;28;20063;-83
2023/06/12 04:35:33;;;;;;;6.82;2.97;;;;;;;;;;4919613;29;20554;-84
2023/06/12 04:38:27;;;;;;;7.75;3.17;;;;;;;;;;4922937;29;20130;-83
2023/06/12 04:40:59;;;;;;;8.02;3.45;;;;;;;;;;4911965;29;20043;-84
2023/06/12 04:43:27;;;;;;;8.55;3.35;;;;;;;;;;4906001;29;20458;-83
2023/06/12 04:49:11;;;;;;;6.95;3.33;;;;;;;;;;4916337;29;20055;-84
2023/06/12 04:51:49;;;;;;;7.40;3.97;;;;;;;;;;4919566;29;20055;-84
2023/06/12 04:54:19;;;;;;;6.63;2.88;;;;;;;;;;4918703;29;20055;-84
2023/06/12 04:57:12;;;;;;;6.47;3.28;;;;;;;;;;4899634;29;21088;-84
2023/06/12 04:59:44;;;;;;;7.80;3.30;;;;;;;;;;4918159;29;20046;-84
2023/06/12 05:03:03;;;;;;;9.13;3.40;;;;;;;;;;4918591;29;20043;-84
2023/06/12 05:05:31;;;;;;;10.82;3.90;;;;;;;;;;4917957;29;20044;-84
2023/06/12 05:07:59;;;;;;;6.75;3.38;;;;;;;;;;4918864;29;20482;-85
2023/06/12 05:10:31;;;;;;;9.60;3.58;;;;;;;;;;4914721;29;20142;-84
2023/06/12 05:13:25;;;;;;;6.75;3.28;;;;;;;;;;4917763;29;20039;-84
2023/06/12 05:15:53;;;;;;;10.35;3.67;;;;;;;;;;4918583;29;20138;-84
2023/06/12 05:18:45;;;;;;;5.95;3.35;;;;;;;;;;4929773;28;20039;-84
2023/06/12 05:21:14;;;;;;;9.23;3.70;;;;;;;;;;4906783;29;20246;-84
2023/06/12 05:23:48;;;;;;;6.47;3.42;;;;;;;;;;4932481;29;20043;-84
2023/06/12 05:26:16;;;;;;;6.88;3.70;;;;;;;;;;4918280;29;20580;-84
2023/06/12 05:28:43;;;;;;;8.88;3.50;;;;;;;;;;4917690;29;20042;-85
2023/06/12 05:31:47;;;;;;;7.68;3.60;;;;;;;;;;4930105;29;20044;-85
2023/06/12 05:35:20;;;;;;;7.63;4.00;;;;;;;;;;4900544;29;20056;-84
2023/06/12 05:38:01;;;;;;;8.32;3.50;;;;;;;;;;4900692;29;20071;-81
2023/06/12 05:40:29;;;;;;;6.15;3.67;;;;;;;;;;4910087;29;20051;-79
2023/06/12 05:43:01;;;;;;;8.25;3.67;;;;;;;;;;4913821;29;20039;-79
2023/06/12 05:45:29;;;;;;;7.60;3.83;;;;;;;;;;4898867;29;20130;-79
2023/06/12 05:48:01;;;;;;;12.02;3.90;;;;;;;;;;4890885;29;20055;-79
2023/06/12 05:50:29;;;;;;;6.40;4.00;;;;;;;;;;4915616;29;20598;-79
2023/06/12 05:52:57;;;;;;;8.48;3.90;;;;;;;;;;4916233;29;20051;-82
2023/06/12 05:55:25;;;;;;;7.10;3.63;;;;;;;;;;4889317;29;20067;-82
2023/06/12 05:57:57;;;;;;;5.80;3.78;;;;;;;;;;4912701;29;20044;-82
2023/06/12 06:00:25;;;;;;;8.32;4.13;;;;;;;;;;4914122;29;20052;-81
2023/06/12 06:03:00;;;;;;;7.18;3.60;;;;;;;;;;4898886;29;20047;-82
2023/06/12 06:05:31;;;;;;;9.30;4.13;;;;;;;;;;4907245;29;20067;-82
2023/06/12 06:08:07;;;;;;;7.00;3.45;;;;;;;;;;4908259;29;20048;-82
2023/06/12 06:10:38;;;;;;;9.10;3.75;;;;;;;;;;4930669;28;20123;-82
2023/06/12 06:13:11;;;;;;;7.45;3.90;;;;;;;;;;4916646;29;20043;-82
2023/06/12 06:15:39;;;;;;;7.15;3.72;;;;;;;;;;4930063;28;20949;-82
2023/06/12 06:18:13;;;;;;;10.35;4.20;;;;;;;;;;4916418;29;20558;-82
2023/06/12 06:21:05;;;;;;;8.82;3.53;;;;;;;;;;4909854;29;20039;-82
2023/06/12 06:23:34;;;;;;;10.15;4.20;;;;;;;;;;4897927;29;20553;-82
2023/06/12 06:26:12;;;;;;;6.95;3.90;;;;;;;;;;4928901;28;20048;-82
2023/06/12 06:28:45;;;;;;;8.10;3.60;;;;;;;;;;4909510;29;20052;-82
2023/06/12 06:31:30;;;;;;;8.93;3.53;;;;;;;;;;4910682;29;20434;-82
2023/06/12 06:34:25;;;;;;;12.00;4.13;;;;;;;;;;4913269;29;20039;-82
2023/06/12 06:36:58;;;;;;;9.95;3.95;;;;;;;;;;4926919;28;20063;-82
2023/06/12 06:39:31;;;;;;;8.18;3.90;;;;;;;;;;4915284;29;20047;-82
2023/06/12 06:41:59;;;;;;;6.57;3.70;;;;;;;;;;4911830;29;20051;-82
2023/06/12 06:44:45;;;;;;;5.65;3.70;;;;;;;;;;4902425;29;20048;-80
2023/06/12 06:47:17;;;;;;;7.32;3.90;;;;;;;;;;4921972;28;21302;-80
2023/06/12 06:49:45;;;;;;;7.75;3.75;;;;;;;;;;4911719;29;20145;-80
2023/06/12 06:52:17;;;;;;;6.78;3.75;;;;;;;;;;4911445;29;20054;-80
2023/06/12 06:54:45;;;;;;;8.50;3.83;;;;;;;;;;4918170;29;20494;-80
2023/06/12 06:57:14;;;;;;;8.68;3.65;;;;;;;;;;4910735;29;20141;-80
2023/06/12 06:59:41;;;;;;;10.15;4.40;;;;;;;;;;4909796;29;20048;-80
2023/06/12 07:02:09;;;;;;;9.18;4.10;;;;;;;;;;4927599;29;20051;-80
2023/06/12 07:04:37;;;;;;;6.97;4.20;;;;;;;;;;4912963;29;20382;-80
2023/06/12 07:07:06;;;;;;;10.57;3.60;;;;;;;;;;4928579;28;20039;-80
2023/06/12 07:09:33;;;;;;;6.10;3.85;;;;;;;;;;4914541;29;20119;-80
2023/06/12 07:12:01;;;;;;;7.88;3.63;;;;;;;;;;4911435;29;20509;-80
2023/06/12 07:14:29;;;;;;;9.70;3.53;;;;;;;;;;4916917;29;20071;-80
2023/06/12 07:16:57;;;;;;;8.27;4.15;;;;;;;;;;4916749;29;20047;-80
2023/06/12 07:19:25;;;;;;;6.03;3.70;;;;;;;;;;4916897;29;20139;-79
2023/06/12 07:21:53;;;;;;;10.65;3.90;;;;;;;;;;4917580;29;20135;-80
2023/06/12 07:24:25;;;;;;;7.35;3.70;;;;;;;;;;4918383;29;20075;-80
2023/06/12 07:26:53;;;;;;;7.97;3.58;;;;;;;;;;4929969;28;20060;-80
2023/06/12 07:29:23;;;;;;;9.20;3.50;;;;;;;;;;4909367;29;20051;-80
2023/06/12 07:31:51;;;;;;;6.68;2.90;;;;;;;;;;4917315;29;20052;-80
2023/06/12 07:34:19;;;;;;;7.10;3.45;;;;;;;;;;4919496;29;20039;-79
2023/06/12 07:36:47;;;;;;;10.32;3.70;;;;;;;;;;4932327;29;20048;-80
2023/06/12 07:39:15;;;;;;;7.43;3.40;;;;;;;;;;4933647;29;20047;-80
2023/06/12 07:41:44;;;;;;;8.02;3.67;;;;;;;;;;4917247;29;20498;-80
2023/06/12 07:44:11;;;;;;;7.13;3.70;;;;;;;;;;4916301;29;20047;-80
2023/06/12 07:46:41;;;;;;;8.35;3.53;;;;;;;;;;4916099;29;20167;-80
2023/06/12 07:49:16;;;;;;;8.05;3.17;;;;;;;;;;4923697;29;20197;-80
2023/06/12 07:51:43;;;;;;;6.65;3.58;;;;;;;;;;4918647;29;20133;-80
2023/06/12 07:54:21;;;;;;;6.78;3.65;;;;;;;;;;4932395;29;20051;-80
2023/06/12 07:56:55;;;;;;;6.80;3.60;;;;;;;;;;4916034;29;20492;-80
2023/06/12 07:59:23;;;;;;;13.13;4.20;;;;;;;;;;4918090;29;20163;-82
2023/06/12 08:01:58;;;;;;;6.72;3.30;;;;;;;;;;4908982;29;20158;-83
2023/06/12 08:04:26;;;;;;;5.38;3.42;;;;;;;;;;4919791;29;20143;-83
2023/06/12 08:07:00;;;;;;;6.38;3.10;;;;;;;;;;4913755;29;20044;-83
2023/06/12 08:09:33;;;;;;;4.78;2.80;;;;;;;;;;4913235;29;20049;-82
2023/06/12 08:12:01;;;;;;;6.82;2.80;;;;;;;;;;4932765;28;20059;-85
2023/06/12 08:14:29;;;;;;;8.23;3.08;;;;;;;;;;4911234;29;20460;-85
2023/06/12 08:16:58;;;;;;;6.10;2.95;;;;;;;;;;4915794;29;20035;-85
2023/06/12 08:19:49;;;;;;;6.72;3.13;;;;;;;;;;4917212;29;20349;-85
2023/06/12 08:22:17;;;;;;;6.55;3.22;;;;;;;;;;4922838;29;20052;-83
2023/06/12 08:24:46;;;;;;;7.20;3.47;;;;;;;;;;4919544;29;20044;-82
2023/06/12 08:27:13;;;;;;;5.15;3.50;;;;;;;;;;4931705;28;20054;-83
2023/06/12 08:29:41;;;;;;;14.25;3.47;;;;;;;;;;4917312;29;20044;-82
2023/06/12 08:32:10;;;;;;;7.72;3.20;;;;;;;;;;4933418;29;20120;-82
2023/06/12 08:34:38;;;;;;;8.70;3.45;;;;;;;;;;4918697;29;20075;-82
2023/06/12 08:37:05;;;;;;;7.78;3.05;;;;;;;;;;4933147;28;20070;-83
2023/06/12 08:39:37;;;;;;;4.80;2.92;;;;;;;;;;4924279;29;20154;-82
2023/06/12 08:42:12;;;;;;;5.13;3.03;;;;;;;;;;4931626;29;20044;-83
2023/06/12 08:44:43;;;;;;;7.77;3.93;;;;;;;;;;4930103;28;20039;-82
2023/06/12 08:47:10;;;;;;;10.30;3.20;;;;;;;;;;4930321;28;20058;-83
2023/06/12 08:49:38;;;;;;;5.88;2.88;;;;;;;;;;4916952;29;20044;-82
2023/06/12 08:52:12;;;;;;;5.20;3.10;;;;;;;;;;4908696;29;20048;-83
2023/06/12 08:54:40;;;;;;;11.52;2.95;;;;;;;;;;4917901;29;20790;-82
2023/06/12 08:57:13;;;;;;;7.87;3.00;;;;;;;;;;4917430;29;20058;-83
2023/06/12 08:59:41;;;;;;;6.55;3.00;;;;;;;;;;4918538;29;20048;-82
2023/06/12 09:02:16;;;;;;;7.05;3.47;;;;;;;;;;4927930;28;20044;-82
2023/06/12 09:05:01;;;;;;;5.43;2.75;;;;;;;;;;4927143;29;20054;-83
2023/06/12 09:07:36;;;;;;;5.05;2.60;;;;;;;;;;4916311;29;20043;-83
2023/06/12 09:10:04;;;;;;;7.23;3.00;;;;;;;;;;4913595;29;20044;-83
2023/06/12 09:12:43;;;;;;;5.53;2.80;;;;;;;;;;4916704;29;20378;-82
2023/06/12 09:15:18;;;;;;;5.83;2.80;;;;;;;;;;4903715;29;20417;-83
2023/06/12 09:18:17;;;;;;;7.72;2.72;;;;;;;;;;4914014;29;20304;-83
2023/06/12 09:20:51;;;;;;;13.18;3.22;;;;;;;;;;4917093;29;20043;-83
2023/06/12 09:23:20;;;;;;;6.95;2.60;;;;;;;;;;4917593;29;20051;-83
2023/06/12 09:25:55;;;;;;;5.97;2.78;;;;;;;;;;4922901;29;20071;-83
2023/06/12 09:28:43;;;;;;;9.05;2.92;;;;;;;;;;4922683;29;20573;-83
2023/06/12 09:31:14;;;;;;;8.07;2.28;;;;;;;;;;4913730;29;20528;-83
2023/06/12 09:33:44;;;;;;;4.80;2.72;;;;;;;;;;4914739;29;20134;-82
2023/06/12 09:36:36;;;;;;;6.97;2.80;;;;;;;;;;4914363;29;20039;-83
2023/06/12 09:39:16;;;;;;;8.13;2.72;;;;;;;;;;4915046;29;20044;-83
2023/06/12 09:41:50;;;;;;;6.40;2.78;;;;;;;;;;4916319;29;20059;-83
2023/06/12 09:44:23;;;;;;;5.63;2.53;;;;;;;;;;4913152;29;20071;-83
2023/06/12 09:46:53;;;;;;;5.95;2.40;;;;;;;;;;4904926;29;20040;-83
2023/06/12 09:49:31;;;;;;;5.95;2.35;;;;;;;;;;4910229;29;20134;-82
2023/06/12 09:52:07;;;;;;;3.85;2.58;;;;;;;;;;4911035;29;20191;-83
2023/06/12 09:55:03;;;;;;;5.97;2.67;;;;;;;;;;4914131;29;20134;-83
2023/06/12 09:57:37;;;;;;;4.93;2.60;;;;;;;;;;4912554;29;20047;-83
2023/06/12 10:00:07;;;;;;;4.82;2.92;;;;;;;;;;4915489;29;20199;-83
2023/06/12 10:02:43;;;;;;;5.38;2.67;;;;;;;;;;4908296;29;21939;-83
2023/06/12 10:05:43;;;;;;;8.25;2.65;;;;;;;;;;4912741;29;20092;-83
2023/06/12 10:08:10;;;;;;;10.43;2.50;;;;;;;;;;4925378;28;20142;-83
2023/06/12 10:11:06;;;;;;;7.95;2.80;;;;;;;;;;4913405;29;20055;-83
2023/06/12 10:13:35;;;;;;;6.00;3.00;;;;;;;;;;4915565;29;20048;-83
2023/06/12 10:16:08;;;;;;;5.25;2.80;;;;;;;;;;4916825;29;20075;-83
2023/06/12 10:18:35;;;;;;;4.25;2.50;;;;;;;;;;4913676;29;20055;-83
2023/06/12 10:21:04;;;;;;;5.32;3.15;;;;;;;;;;4897419;29;20442;-83
2023/06/12 10:23:56;;;;;;;7.07;2.50;;;;;;;;;;4911391;29;20044;-83
2023/06/12 10:26:24;;;;;;;7.60;2.83;;;;;;;;;;4916024;29;20495;-83
2023/06/12 10:28:57;;;;;;;4.38;2.63;;;;;;;;;;4915092;29;20040;-83
2023/06/12 10:31:29;;;;;;;5.75;2.90;;;;;;;;;;4909339;29;20040;-83
2023/06/12 10:34:10;;;;;;;4.38;2.78;;;;;;;;;;4909550;29;20068;-83
2023/06/12 10:36:43;;;;;;;8.00;2.80;;;;;;;;;;4914531;29;20549;-83
2023/06/12 10:39:17;;;;;;;6.97;2.72;;;;;;;;;;4927599;29;20051;-83
2023/06/12 10:41:54;;;;;;;6.65;2.80;;;;;;;;;;4927428;28;20048;-83
2023/06/12 10:44:39;;;;;;;5.72;2.78;;;;;;;;;;4913237;29;20426;-83
2023/06/12 10:47:19;;;;;;;4.78;2.40;;;;;;;;;;4912113;29;20130;-83
2023/06/12 10:50:03;;;;;;;5.30;2.50;;;;;;;;;;4905296;29;20044;-83
2023/06/12 10:52:35;;;;;;;4.85;2.83;;;;;;;;;;4909624;29;20048;-83
2023/06/12 10:55:15;;;;;;;5.53;2.53;;;;;;;;;;4913987;29;20059;-82
2023/06/12 10:57:54;;;;;;;8.15;3.00;;;;;;;;;;4913969;29;20123;-83
2023/06/12 11:00:27;;;;;;;4.20;2.40;;;;;;;;;;4908113;29;20522;-83
2023/06/12 11:03:02;;;;;;;4.35;2.25;;;;;;;;;;4908107;29;20052;-83
2023/06/12 11:06:00;;;;;;;7.50;2.50;;;;;;;;;;4917918;29;20047;-83
2023/06/12 11:08:28;;;;;;;8.73;2.50;;;;;;;;;;4927081;28;20048;-83
2023/06/12 11:11:09;;;;;;;5.80;2.70;;;;;;;;;;4929096;28;20055;-83
2023/06/12 11:13:45;;;;;;;8.75;2.13;;;;;;;;;;4911567;29;20070;-83
2023/06/12 11:16:15;;;;;;;5.32;2.35;;;;;;;;;;4912447;29;20040;-83
2023/06/12 11:18:43;;;;;;;5.43;2.58;;;;;;;;;;4912769;29;20040;-84
2023/06/12 11:21:12;;;;;;;8.38;2.20;;;;;;;;;;4927474;28;20142;-83
2023/06/12 11:23:45;;;;;;;4.60;2.50;;;;;;;;;;4910285;29;20054;-83
2023/06/12 11:26:37;;;;;;;4.00;2.10;;;;;;;;;;4914998;29;20047;-82
2023/06/12 11:29:17;;;;;;;7.03;2.53;;;;;;;;;;4913804;29;20047;-83
2023/06/12 11:31:49;;;;;;;6.05;2.35;;;;;;;;;;4908624;29;20063;-83
2023/06/12 11:34:17;;;;;;;7.75;2.17;;;;;;;;;;4914982;29;20044;-83
2023/06/12 11:36:46;;;;;;;12.55;3.25;;;;;;;;;;4915311;29;20064;-83
2023/06/12 11:39:18;;;;;;;6.40;2.28;;;;;;;;;;4916050;29;20048;-83
2023/06/12 11:41:49;;;;;;;4.55;2.40;;;;;;;;;;4915707;29;20063;-83
2023/06/12 11:44:17;;;;;;;6.30;2.53;;;;;;;;;;4928066;28;20048;-83
2023/06/12 11:46:45;;;;;;;4.45;2.10;;;;;;;;;;4925040;28;20754;-83
2023/06/12 11:49:13;;;;;;;4.30;2.25;;;;;;;;;;4914077;29;20105;-83
2023/06/12 11:51:42;;;;;;;4.20;2.45;;;;;;;;;;4914580;29;20044;-83
2023/06/12 11:54:59;;;;;;;4.45;2.10;;;;;;;;;;4916251;29;20130;-83
2023/06/12 11:57:36;;;;;;;4.15;2.15;;;;;;;;;;4917713;29;20050;-83
2023/06/12 12:00:14;;;;;;;4.53;2.10;;;;;;;;;;4919565;29;20046;-83
2023/06/12 12:02:46;;;;;;;5.65;2.38;;;;;;;;;;4921921;29;20040;-84
2023/06/12 12:05:22;;;;;;;4.75;2.00;;;;;;;;;;4932631;28;20068;-84
2023/06/12 12:07:59;;;;;;;6.78;2.20;;;;;;;;;;4929592;29;20130;-84
2023/06/12 12:10:35;;;;;;;3.95;2.40;;;;;;;;;;4916187;29;20103;-84
2023/06/12 12:13:27;;;;;;;5.45;2.28;;;;;;;;;;4917118;29;20406;-83
2023/06/12 12:15:55;;;;;;;6.07;2.15;;;;;;;;;;4918652;29;20054;-84
2023/06/12 12:18:47;;;;;;;4.93;2.30;;;;;;;;;;4909818;29;20629;-83
2023/06/12 12:21:16;;;;;;;8.35;2.30;;;;;;;;;;4917750;29;20056;-83
2023/06/12 12:23:45;;;;;;;4.55;2.40;;;;;;;;;;4914097;29;20135;-83
2023/06/12 12:26:13;;;;;;;3.72;2.10;;;;;;;;;;4919276;29;20126;-83
2023/06/12 12:28:42;;;;;;;6.13;2.42;;;;;;;;;;4918391;29;20056;-83
2023/06/12 12:31:36;;;;;;;5.13;2.22;;;;;;;;;;4917381;29;20491;-83
2023/06/12 12:34:03;;;;;;;5.90;2.60;;;;;;;;;;4915381;29;20078;-83
2023/06/12 12:36:39;;;;;;;6.90;2.45;;;;;;;;;;4919246;29;20050;-83
2023/06/12 12:39:11;;;;;;;6.90;2.25;;;;;;;;;;4918919;29;20594;-83
2023/06/12 12:41:39;;;;;;;4.10;2.30;;;;;;;;;;4917283;29;20138;-83
2023/06/12 12:46:59;;;;;;;8.35;2.40;;;;;;;;;;4915670;29;20052;-83
2023/06/12 12:49:28;;;;;;;5.85;2.30;;;;;;;;;;4915250;29;20051;-83
2023/06/12 12:51:55;;;;;;;6.03;2.58;;;;;;;;;;4916552;29;20064;-83
2023/06/12 12:54:23;;;;;;;9.48;2.50;;;;;;;;;;4912430;29;20123;-84
2023/06/12 12:56:57;;;;;;;5.18;2.30;;;;;;;;;;4916563;29;20158;-83
2023/06/12 12:59:25;;;;;;;4.65;2.13;;;;;;;;;;4918667;29;20044;-83
2023/06/12 13:02:17;;;;;;;4.63;2.20;;;;;;;;;;4916235;29;20051;-83
2023/06/12 13:05:11;;;;;;;11.30;2.65;;;;;;;;;;4916794;29;20039;-83
2023/06/12 13:07:39;;;;;;;6.68;2.50;;;;;;;;;;4917407;29;20047;-83
2023/06/12 13:10:10;;;;;;;3.42;2.00;;;;;;;;;;4925702;28;20141;-83
2023/06/12 13:13:03;;;;;;;4.28;2.42;;;;;;;;;;4901045;29;20054;-83
2023/06/12 13:15:31;;;;;;;6.43;2.42;;;;;;;;;;4919209;29;20044;-83
2023/06/12 13:17:59;;;;;;;7.65;2.58;;;;;;;;;;4913764;29;20876;-83
2023/06/12 13:20:28;;;;;;;3.70;2.30;;;;;;;;;;4917005;29;20046;-83
2023/06/12 13:22:55;;;;;;;7.32;2.95;;;;;;;;;;4915187;29;20050;-83
2023/06/12 13:25:23;;;;;;;7.85;2.20;;;;;;;;;;4916495;29;20040;-83
2023/06/12 13:27:55;;;;;;;5.40;2.67;;;;;;;;;;4917805;29;20036;-83
2023/06/12 13:30:24;;;;;;;5.70;2.10;;;;;;;;;;4927022;29;20055;-83
2023/06/12 13:32:57;;;;;;;6.55;2.83;;;;;;;;;;4904773;29;20128;-83
2023/06/12 13:35:25;;;;;;;4.65;2.42;;;;;;;;;;4916154;29;20063;-83
2023/06/12 13:37:54;;;;;;;8.02;2.47;;;;;;;;;;4930595;29;20952;-83
2023/06/12 13:40:23;;;;;;;3.88;2.40;;;;;;;;;;4914904;29;20043;-83
2023/06/12 13:42:51;;;;;;;3.95;2.45;;;;;;;;;;4915082;29;20088;-83
2023/06/12 13:45:19;;;;;;;6.55;2.63;;;;;;;;;;4897606;29;20044;-83
2023/06/12 13:47:47;;;;;;;6.68;2.50;;;;;;;;;;4914161;29;20122;-83
2023/06/12 13:50:19;;;;;;;5.80;2.28;;;;;;;;;;4915562;29;20403;-83
2023/06/12 13:52:47;;;;;;;5.03;2.88;;;;;;;;;;4906955;29;20056;-83
2023/06/12 13:55:16;;;;;;;5.18;2.50;;;;;;;;;;4917037;29;20036;-83
2023/06/12 13:57:44;;;;;;;4.35;2.40;;;;;;;;;;4913783;29;20525;-83
2023/06/12 14:00:12;;;;;;;7.18;2.60;;;;;;;;;;4917892;29;20047;-83
2023/06/12 14:02:40;;;;;;;6.28;2.40;;;;;;;;;;4914234;29;20067;-83
2023/06/12 14:05:33;;;;;;;4.22;2.40;;;;;;;;;;4915788;29;20175;-83
2023/06/12 14:08:02;;;;;;;3.75;2.15;;;;;;;;;;4914759;29;20508;-83
2023/06/12 14:10:31;;;;;;;5.55;2.38;;;;;;;;;;4913902;29;20052;-83
2023/06/12 14:13:11;;;;;;;9.55;2.60;;;;;;;;;;4915160;29;20067;-83
2023/06/12 14:15:39;;;;;;;4.63;2.60;;;;;;;;;;4916666;29;20522;-83
2023/06/12 14:18:11;;;;;;;5.18;2.58;;;;;;;;;;4916344;29;20639;-83
2023/06/12 14:21:07;;;;;;;5.22;2.55;;;;;;;;;;4909161;29;20135;-83
2023/06/12 14:26:27;;;;;;;3.30;2.08;;;;;;;;;;4916737;29;20131;-83
2023/06/12 14:28:55;;;;;;;3.28;2.30;;;;;;;;;;4917349;29;20523;-83
2023/06/12 14:31:47;;;;;;;5.13;2.30;;;;;;;;;;4907309;29;20048;-83
2023/06/12 14:34:15;;;;;;;6.10;2.80;;;;;;;;;;4915852;29;20131;-83
2023/06/12 14:36:49;;;;;;;4.65;2.40;;;;;;;;;;4915425;29;20565;-82
2023/06/12 14:39:17;;;;;;;5.88;2.20;;;;;;;;;;4917009;29;20048;-83
2023/06/12 14:41:49;;;;;;;4.97;2.42;;;;;;;;;;4915148;29;20050;-83
2023/06/12 14:44:41;;;;;;;3.88;2.20;;;;;;;;;;4912073;29;20897;-82
2023/06/12 14:47:13;;;;;;;3.92;2.40;;;;;;;;;;4910151;29;20064;-83
2023/06/12 14:49:45;;;;;;;7.85;2.70;;;;;;;;;;4900391;29;20126;-83
2023/06/12 14:52:37;;;;;;;6.38;2.33;;;;;;;;;;4914968;29;20137;-84
2023/06/12 14:55:09;;;;;;;5.72;2.33;;;;;;;;;;4913025;29;20039;-83
2023/06/12 14:57:38;;;;;;;6.18;2.60;;;;;;;;;;4915220;29;20051;-83
2023/06/12 15:00:07;;;;;;;9.55;2.75;;;;;;;;;;4916240;29;20046;-84
2023/06/12 15:02:36;;;;;;;10.23;3.70;;;;;;;;;;4917361;29;20061;-84
2023/06/12 15:05:04;;;;;;;6.50;2.60;;;;;;;;;;4912538;29;20047;-83
2023/06/12 15:07:31;;;;;;;8.05;2.50;;;;;;;;;;4912742;29;20044;-83
2023/06/12 15:10:04;;;;;;;5.47;2.47;;;;;;;;;;4915939;29;20062;-83
2023/06/12 15:12:37;;;;;;;4.28;2.10;;;;;;;;;;4932590;28;20648;-83
2023/06/12 15:15:11;;;;;;;5.22;2.60;;;;;;;;;;4918206;29;20048;-83
2023/06/12 15:18:04;;;;;;;5.15;2.40;;;;;;;;;;4916574;29;20043;-83
2023/06/12 15:20:31;;;;;;;4.72;2.35;;;;;;;;;;4914552;29;20139;-83
2023/06/12 15:22:59;;;;;;;8.52;2.60;;;;;;;;;;4918145;29;20446;-83
2023/06/12 15:25:32;;;;;;;6.78;2.67;;;;;;;;;;4915137;29;20313;-84
2023/06/12 15:27:59;;;;;;;5.00;3.03;;;;;;;;;;4917517;29;20106;-83
2023/06/12 15:30:27;;;;;;;5.68;2.17;;;;;;;;;;4921293;29;20478;-83
2023/06/12 15:32:55;;;;;;;4.07;2.40;;;;;;;;;;4912365;29;20051;-84
2023/06/12 15:35:27;;;;;;;4.18;2.10;;;;;;;;;;4921764;29;20067;-83